createdAt,value
2023-05-07T03:49:18.299Z,5.61
2023-05-07T03:50:18.289Z,5.61
2023-05-07T03:51:18.277Z,5.61
2023-05-07T03:52:18.273Z,5.61
2023-05-07T03:53:18.261Z,5.61
2023-05-07T03:54:18.248Z,5.61
2023-05-07T03:55:18.239Z,5.61
2023-05-07T03:56:19.695Z,5.61
2023-05-07T03:57:18.413Z,11.25
2023-05-07T03:58:18.505Z,11.25
2023-05-07T03:59:18.192Z,11.25
2023-05-07T04:00:18.383Z,11.25
2023-05-07T04:01:18.184Z,11.25
2023-05-07T04:02:18.178Z,16.87
2023-05-07T04:03:18.292Z,16.87
2023-05-07T04:04:18.193Z,16.87
2023-05-07T04:05:18.129Z,16.87
2023-05-07T04:06:18.319Z,16.87
2023-05-07T04:07:18.109Z,16.87
2023-05-07T04:08:18.095Z,16.87
2023-05-07T04:09:18.087Z,16.87
2023-05-07T04:10:18.073Z,16.87
2023-05-07T04:11:19.415Z,16.87
2023-05-07T04:12:18.054Z,22.50
2023-05-07T04:13:18.119Z,22.50
2023-05-07T04:14:18.179Z,22.50
2023-05-07T04:15:18.022Z,22.50
2023-05-07T04:16:18.035Z,28.12
2023-05-07T04:17:18.000Z,33.75
2023-05-07T04:18:17.989Z,33.75
2023-05-07T04:19:17.977Z,39.36
2023-05-07T04:20:17.962Z,39.36
2023-05-07T04:21:17.955Z,45.00
2023-05-07T04:22:17.984Z,50.61
2023-05-07T04:23:17.958Z,50.61
2023-05-07T04:24:17.932Z,56.25
2023-05-07T04:25:17.913Z,56.25
2023-05-07T04:26:17.908Z,61.86
2023-05-07T04:27:17.893Z,61.86
2023-05-07T04:28:17.882Z,67.50
2023-05-07T04:29:17.869Z,67.50
2023-05-07T04:30:17.883Z,67.50
2023-05-07T04:31:17.918Z,73.12
2023-05-07T04:32:17.894Z,73.12
2023-05-07T04:33:17.850Z,78.75
2023-05-07T04:34:17.816Z,84.37
2023-05-07T04:35:17.801Z,90.00
2023-05-07T04:36:17.800Z,95.62
2023-05-07T04:37:17.779Z,101.25
2023-05-07T04:38:17.769Z,106.87
2023-05-07T04:39:17.763Z,112.50
2023-05-07T04:40:17.746Z,118.12
2023-05-07T04:41:17.779Z,129.36
2023-05-07T04:42:17.931Z,135.00
2023-05-07T04:43:17.716Z,140.61
2023-05-07T04:44:17.703Z,213.75
2023-05-07T04:45:17.691Z,230.61
2023-05-07T04:46:17.832Z,168.75
2023-05-07T04:47:17.675Z,157.50
2023-05-07T04:48:17.862Z,163.11
2023-05-07T04:49:17.651Z,174.36
2023-05-07T04:50:17.641Z,180.00
2023-05-07T04:51:17.631Z,180.00
2023-05-07T04:52:17.618Z,196.86
2023-05-07T04:53:17.615Z,208.11
2023-05-07T04:54:17.595Z,208.11
2023-05-07T04:55:17.601Z,213.75
2023-05-07T04:56:17.575Z,219.36
2023-05-07T04:57:17.567Z,219.36
2023-05-07T04:58:19.302Z,230.61
2023-05-07T04:59:17.546Z,236.25
2023-05-07T05:00:17.569Z,241.86
2023-05-07T05:01:51.632Z,247.50
2023-05-07T05:02:51.532Z,247.50
2023-05-07T05:03:51.521Z,247.50
2023-05-07T05:04:51.418Z,247.50
2023-05-07T05:05:51.408Z,253.11
2023-05-07T05:06:51.396Z,258.75
2023-05-07T05:07:51.395Z,264.36
2023-05-07T05:08:51.379Z,275.61
2023-05-07T05:09:51.363Z,275.61
2023-05-07T05:10:51.354Z,275.61
2023-05-07T05:11:51.343Z,258.75
2023-05-07T05:12:51.420Z,253.11
2023-05-07T05:13:51.324Z,253.11
2023-05-07T05:14:51.313Z,253.11
2023-05-07T05:15:51.306Z,253.11
2023-05-07T05:16:51.294Z,258.75
2023-05-07T05:17:51.443Z,264.36
2023-05-07T05:18:51.267Z,270.00
2023-05-07T05:19:51.265Z,275.61
2023-05-07T05:20:51.248Z,286.86
2023-05-07T05:21:51.233Z,298.11
2023-05-07T05:22:51.226Z,303.75
2023-05-07T05:23:51.225Z,309.36
2023-05-07T05:24:51.203Z,309.36
2023-05-07T05:25:51.195Z,315.00
2023-05-07T05:26:51.187Z,326.25
2023-05-07T05:27:51.381Z,337.50
2023-05-07T05:28:51.157Z,354.36
2023-05-07T05:29:51.152Z,371.25
2023-05-07T05:30:51.138Z,388.11
2023-05-07T05:31:51.210Z,410.61
2023-05-07T05:32:51.230Z,421.86
2023-05-07T05:33:51.138Z,433.11
2023-05-07T05:34:51.095Z,421.86
2023-05-07T05:35:51.093Z,427.50
2023-05-07T05:36:51.082Z,450.00
2023-05-07T05:37:51.071Z,444.36
2023-05-07T05:38:51.059Z,455.61
2023-05-07T05:39:51.048Z,483.75
2023-05-07T05:40:51.040Z,517.50
2023-05-07T05:41:51.025Z,495.00
2023-05-07T05:42:51.224Z,495.00
2023-05-07T05:43:51.003Z,511.86
2023-05-07T05:44:50.992Z,511.86
2023-05-07T05:45:50.978Z,534.36
2023-05-07T05:46:51.176Z,568.11
2023-05-07T05:47:51.044Z,568.11
2023-05-07T05:48:52.470Z,585.00
2023-05-07T05:49:50.939Z,596.25
2023-05-07T05:50:50.927Z,601.86
2023-05-07T05:51:50.915Z,618.75
2023-05-07T05:52:50.904Z,624.36
2023-05-07T05:53:50.901Z,624.36
2023-05-07T05:54:50.881Z,624.36
2023-05-07T05:55:50.872Z,618.75
2023-05-07T05:56:50.861Z,624.36
2023-05-07T05:57:50.852Z,646.86
2023-05-07T05:58:50.918Z,691.86
2023-05-07T05:59:50.838Z,703.11
2023-05-07T06:00:50.818Z,691.86
2023-05-07T06:01:50.889Z,680.61
2023-05-07T06:02:50.843Z,680.61
2023-05-07T06:03:50.794Z,691.86
2023-05-07T06:04:50.888Z,748.11
2023-05-07T06:05:50.768Z,798.75
2023-05-07T06:06:50.758Z,832.50
2023-05-07T06:07:50.746Z,894.36
2023-05-07T06:08:50.739Z,900.00
2023-05-07T06:09:50.745Z,950.61
2023-05-07T06:10:50.718Z,1006.86
2023-05-07T06:11:50.705Z,1153.11
2023-05-07T06:12:50.715Z,1372.50
2023-05-07T06:13:50.683Z,1563.75
2023-05-07T06:14:50.680Z,2165.62
2023-05-07T06:15:50.662Z,2818.12
2023-05-07T06:16:50.674Z,1957.50
2023-05-07T06:17:50.675Z,2109.37
2023-05-07T06:18:50.630Z,1271.25
2023-05-07T06:19:50.628Z,1524.36
2023-05-07T06:20:50.763Z,1293.75
2023-05-07T06:21:50.601Z,1366.86
2023-05-07T06:22:50.585Z,1411.86
2023-05-07T06:23:50.579Z,1681.86
2023-05-07T06:24:50.567Z,1811.25
2023-05-07T06:25:50.554Z,2092.50
2023-05-07T06:26:50.544Z,1755.00
2023-05-07T06:27:50.740Z,1440.00
2023-05-07T06:28:50.527Z,1293.75
2023-05-07T06:29:50.520Z,1136.25
2023-05-07T06:30:50.512Z,1125.00
2023-05-07T06:31:50.532Z,995.61
2023-05-07T06:32:50.563Z,911.25
2023-05-07T06:33:50.470Z,883.11
2023-05-07T06:34:50.469Z,888.75
2023-05-07T06:35:50.455Z,787.50
2023-05-07T06:36:50.531Z,641.25
2023-05-07T06:37:50.639Z,585.00
2023-05-07T06:38:50.435Z,540.00
2023-05-07T06:39:50.418Z,523.11
2023-05-07T06:40:50.402Z,506.25
2023-05-07T06:41:50.391Z,500.61
2023-05-07T06:42:50.381Z,483.75
2023-05-07T06:43:50.375Z,472.50
2023-05-07T06:44:50.357Z,461.25
2023-05-07T06:45:50.383Z,455.61
2023-05-07T06:46:50.334Z,450.00
2023-05-07T06:47:50.379Z,450.00
2023-05-07T06:48:50.318Z,455.61
2023-05-07T06:49:50.306Z,461.25
2023-05-07T06:50:50.293Z,472.50
2023-05-07T06:51:50.288Z,483.75
2023-05-07T06:52:50.404Z,500.61
2023-05-07T06:53:50.263Z,517.50
2023-05-07T06:54:50.252Z,534.36
2023-05-07T06:55:50.244Z,540.00
2023-05-07T06:56:50.229Z,551.25
2023-05-07T06:57:50.217Z,562.50
2023-05-07T06:58:50.211Z,579.36
2023-05-07T06:59:50.195Z,596.25
2023-05-07T07:00:50.190Z,618.75
2023-05-07T07:01:50.272Z,652.50
2023-05-07T07:02:50.218Z,686.25
2023-05-07T07:03:50.157Z,731.25
2023-05-07T07:04:50.216Z,776.25
2023-05-07T07:05:50.133Z,821.25
2023-05-07T07:06:50.121Z,866.25
2023-05-07T07:07:50.112Z,894.36
2023-05-07T07:08:50.190Z,916.86
2023-05-07T07:09:50.090Z,922.50
2023-05-07T07:10:50.281Z,922.50
2023-05-07T07:11:50.068Z,928.11
2023-05-07T07:12:50.104Z,922.50
2023-05-07T07:13:50.048Z,928.11
2023-05-07T07:14:50.041Z,945.00
2023-05-07T07:15:50.051Z,956.25
2023-05-07T07:16:50.019Z,967.50
2023-05-07T07:17:50.040Z,967.50
2023-05-07T07:18:49.996Z,961.86
2023-05-07T07:19:49.987Z,961.86
2023-05-07T07:20:49.983Z,967.50
2023-05-07T07:21:49.955Z,1006.86
2023-05-07T07:22:49.951Z,990.00
2023-05-07T07:23:49.940Z,973.11
2023-05-07T07:24:50.020Z,967.50
2023-05-07T07:25:49.917Z,984.36
2023-05-07T07:26:49.905Z,1035.00
2023-05-07T07:27:49.896Z,1091.25
2023-05-07T07:28:49.888Z,1096.86
2023-05-07T07:29:49.894Z,1113.75
2023-05-07T07:30:49.867Z,1158.75
2023-05-07T07:31:49.997Z,1237.50
2023-05-07T07:32:49.902Z,1378.11
2023-05-07T07:33:51.639Z,1400.61
2023-05-07T07:34:49.820Z,1530.00
2023-05-07T07:35:49.808Z,1603.11
2023-05-07T07:36:49.799Z,1743.75
2023-05-07T07:37:49.792Z,1524.36
2023-05-07T07:38:49.779Z,1507.50
2023-05-07T07:39:49.770Z,1625.61
2023-05-07T07:40:49.776Z,2154.37
2023-05-07T07:41:49.746Z,2036.25
2023-05-07T07:42:49.735Z,2238.75
2023-05-07T07:43:50.023Z,3740.62
2023-05-07T07:44:49.715Z,4123.12
2023-05-07T07:45:49.707Z,3802.50
2023-05-07T07:46:49.744Z,3549.37
2023-05-07T07:47:49.703Z,4173.75
2023-05-07T07:48:49.675Z,3324.37
2023-05-07T07:49:49.662Z,3718.12
2023-05-07T07:50:49.654Z,4460.62
2023-05-07T07:51:49.645Z,3965.62
2023-05-07T07:52:49.658Z,1929.36
2023-05-07T07:53:49.622Z,1473.75
2023-05-07T07:54:49.607Z,1226.25
2023-05-07T07:55:49.600Z,1153.11
2023-05-07T07:56:49.680Z,1125.00
2023-05-07T07:57:49.582Z,1141.86
2023-05-07T07:58:49.570Z,1175.61
2023-05-07T07:59:49.761Z,1215.00
2023-05-07T08:00:49.549Z,1254.36
2023-05-07T08:01:49.583Z,1293.75
2023-05-07T08:02:49.686Z,1276.86
2023-05-07T08:03:49.609Z,1209.36
2023-05-07T08:04:49.511Z,1175.61
2023-05-07T08:05:49.495Z,1108.11
2023-05-07T08:06:49.485Z,1068.75
2023-05-07T08:07:49.472Z,1012.50
2023-05-07T08:08:49.467Z,1001.25
2023-05-07T08:09:49.454Z,1001.25
2023-05-07T08:10:49.443Z,1006.86
2023-05-07T08:11:49.438Z,1023.75
2023-05-07T08:12:49.465Z,1035.00
2023-05-07T08:13:49.416Z,1006.86
2023-05-07T08:14:49.404Z,990.00
2023-05-07T08:15:49.397Z,984.36
2023-05-07T08:16:49.400Z,1023.75
2023-05-07T08:17:49.494Z,1181.25
2023-05-07T08:18:49.362Z,1248.75
2023-05-07T08:19:49.352Z,1552.50
2023-05-07T08:20:49.340Z,1653.75
2023-05-07T08:21:49.348Z,2379.37
2023-05-07T08:22:49.545Z,2165.62
2023-05-07T08:23:49.309Z,2199.37
2023-05-07T08:24:49.301Z,2542.50
2023-05-07T08:25:49.309Z,1681.86
2023-05-07T08:26:49.283Z,1406.25
2023-05-07T08:27:49.273Z,1389.36
2023-05-07T08:28:49.373Z,1428.75
2023-05-07T08:29:49.249Z,1327.50
2023-05-07T08:30:49.469Z,1338.75
2023-05-07T08:31:49.232Z,1271.25
2023-05-07T08:32:49.275Z,1220.61
2023-05-07T08:33:49.206Z,1198.11
2023-05-07T08:34:49.203Z,1198.11
2023-05-07T08:35:49.186Z,1215.00
2023-05-07T08:36:49.177Z,1226.25
2023-05-07T08:37:49.191Z,1400.61
2023-05-07T08:38:49.166Z,1158.75
2023-05-07T08:39:49.145Z,1130.61
2023-05-07T08:40:49.142Z,1147.50
2023-05-07T08:41:49.126Z,1125.00
2023-05-07T08:42:49.120Z,1125.00
2023-05-07T08:43:49.103Z,1108.11
2023-05-07T08:44:49.115Z,1063.11
2023-05-07T08:45:49.147Z,1006.86
2023-05-07T08:46:49.323Z,945.00
2023-05-07T08:47:49.141Z,883.11
2023-05-07T08:48:49.051Z,815.61
2023-05-07T08:49:49.044Z,770.61
2023-05-07T08:50:49.039Z,731.25
2023-05-07T08:51:49.015Z,708.75
2023-05-07T08:52:49.013Z,697.50
2023-05-07T08:53:48.994Z,703.11
2023-05-07T08:54:48.993Z,720.00
2023-05-07T08:55:48.992Z,753.75
2023-05-07T08:56:48.970Z,804.36
2023-05-07T08:57:48.954Z,883.11
2023-05-07T08:58:48.948Z,928.11
2023-05-07T08:59:48.924Z,961.86
2023-05-07T09:00:49.015Z,1023.75
2023-05-07T09:01:49.146Z,1125.00
2023-05-07T09:02:48.958Z,1271.25
2023-05-07T09:03:48.958Z,1299.36
2023-05-07T09:04:48.880Z,1288.11
2023-05-07T09:05:48.869Z,1361.25
2023-05-07T09:06:48.855Z,1445.61
2023-05-07T09:07:48.845Z,1794.36
2023-05-07T09:08:48.832Z,2148.75
2023-05-07T09:09:48.821Z,1760.61
2023-05-07T09:10:48.806Z,1670.61
2023-05-07T09:11:48.799Z,1665.00
2023-05-07T09:12:48.869Z,1642.50
2023-05-07T09:13:48.778Z,1670.61
2023-05-07T09:14:48.767Z,1462.50
2023-05-07T09:15:48.767Z,1490.61
2023-05-07T09:16:48.795Z,1479.36
2023-05-07T09:17:48.741Z,1653.75
2023-05-07T09:18:48.728Z,1805.61
2023-05-07T09:19:48.714Z,1839.36
2023-05-07T09:20:48.704Z,1732.50
2023-05-07T09:21:48.710Z,1901.25
2023-05-07T09:22:48.685Z,1822.50
2023-05-07T09:23:48.671Z,1895.61
2023-05-07T09:24:48.671Z,1878.75
2023-05-07T09:25:48.658Z,2233.12
2023-05-07T09:26:48.646Z,1918.11
2023-05-07T09:27:48.632Z,1839.36
2023-05-07T09:28:48.624Z,1839.36
2023-05-07T09:29:48.611Z,1822.50
2023-05-07T09:30:48.602Z,1805.61
2023-05-07T09:31:48.641Z,1861.86
2023-05-07T09:32:48.611Z,1878.75
2023-05-07T09:33:48.599Z,2036.25
2023-05-07T09:34:48.561Z,2458.12
2023-05-07T09:35:48.558Z,2902.50
2023-05-07T09:36:48.537Z,4179.37
2023-05-07T09:37:48.528Z,3813.75
2023-05-07T09:38:48.531Z,2536.87
2023-05-07T09:39:48.518Z,2396.25
2023-05-07T09:40:48.506Z,2092.50
2023-05-07T09:41:48.489Z,2086.87
2023-05-07T09:42:48.485Z,2210.62
2023-05-07T09:43:48.478Z,3701.25
2023-05-07T09:44:48.470Z,2711.25
2023-05-07T09:45:48.491Z,2340.00
2023-05-07T09:46:48.440Z,2385.00
2023-05-07T09:47:48.460Z,2778.75
2023-05-07T09:48:48.702Z,2666.25
2023-05-07T09:49:48.407Z,2891.25
2023-05-07T09:50:48.400Z,2683.12
2023-05-07T09:51:49.892Z,2840.62
2023-05-07T09:52:48.379Z,3830.62
2023-05-07T09:53:48.367Z,2441.25
2023-05-07T09:54:48.369Z,2109.37
2023-05-07T09:55:48.363Z,2340.00
2023-05-07T09:56:48.337Z,3448.12
2023-05-07T09:57:48.329Z,3166.87
2023-05-07T09:58:48.520Z,2604.37
2023-05-07T09:59:48.341Z,3588.75
2023-05-07T10:00:48.311Z,3498.75
2023-05-07T10:01:48.286Z,3813.75
2023-05-07T10:02:48.333Z,4050.00
2023-05-07T10:03:48.486Z,3853.12
2023-05-07T10:04:48.362Z,4168.12
2023-05-07T10:05:48.247Z,3240.00
2023-05-07T10:06:48.249Z,4038.75
2023-05-07T10:07:48.225Z,4201.87
2023-05-07T10:08:48.220Z,4640.62
2023-05-07T10:09:49.028Z,3245.62
2023-05-07T10:10:48.203Z,2874.37
2023-05-07T10:11:48.190Z,2643.75
2023-05-07T10:12:48.208Z,4781.25
2023-05-07T10:13:48.167Z,2880.00
2023-05-07T10:14:48.162Z,2941.87
2023-05-07T10:15:48.149Z,2660.62
2023-05-07T10:16:48.140Z,5028.75
2023-05-07T10:17:48.335Z,3791.25
2023-05-07T10:18:48.175Z,3920.62
2023-05-07T10:19:48.111Z,3555.00
2023-05-07T10:20:48.120Z,3448.12
2023-05-07T10:21:48.096Z,4021.87
2023-05-07T10:22:48.094Z,3870.00
2023-05-07T10:23:48.074Z,3521.25
2023-05-07T10:24:48.064Z,4404.37
2023-05-07T10:25:48.055Z,4494.37
2023-05-07T10:26:48.046Z,4438.12
2023-05-07T10:27:48.035Z,4336.87
2023-05-07T10:28:49.626Z,4218.75
2023-05-07T10:29:48.015Z,4353.75
2023-05-07T10:30:48.042Z,4331.25
2023-05-07T10:31:48.002Z,4376.25
2023-05-07T10:32:48.062Z,4353.75
2023-05-07T10:33:47.976Z,4258.12
2023-05-07T10:34:47.971Z,4252.50
2023-05-07T10:35:47.957Z,4224.37
2023-05-07T10:36:48.040Z,4044.37
2023-05-07T10:37:47.947Z,3825.00
2023-05-07T10:38:47.927Z,3217.50
2023-05-07T10:39:47.916Z,3448.12
2023-05-07T10:40:48.670Z,3701.25
2023-05-07T10:41:47.900Z,3493.12
2023-05-07T10:42:47.894Z,3645.00
2023-05-07T10:43:47.970Z,3566.25
2023-05-07T10:44:47.923Z,3476.25
2023-05-07T10:45:47.947Z,3431.25
2023-05-07T10:46:47.902Z,3313.12
2023-05-07T10:47:47.944Z,3245.62
2023-05-07T10:48:47.836Z,3296.25
2023-05-07T10:49:47.942Z,3330.00
2023-05-07T10:50:48.129Z,3414.37
2023-05-07T10:51:47.802Z,3453.75
2023-05-07T10:52:47.822Z,3487.50
2023-05-07T10:53:47.855Z,3515.62
2023-05-07T10:54:47.834Z,3420.00
2023-05-07T10:55:47.891Z,3526.87
2023-05-07T10:56:47.846Z,3600.00
2023-05-07T10:57:47.950Z,3583.12
2023-05-07T10:58:47.817Z,3628.12
2023-05-07T10:59:47.856Z,3678.75
2023-05-07T11:00:47.787Z,3526.87
2023-05-07T11:01:47.814Z,3436.87
2023-05-07T11:02:47.727Z,3498.75
2023-05-07T11:03:47.689Z,3324.37
2023-05-07T11:04:47.704Z,3386.25
2023-05-07T11:05:47.723Z,3301.87
2023-05-07T11:06:47.658Z,3228.75
2023-05-07T11:07:47.646Z,3414.37
2023-05-07T11:08:47.730Z,3403.12
2023-05-07T11:09:47.626Z,3206.25
2023-05-07T11:10:47.619Z,3088.12
2023-05-07T11:11:48.440Z,3166.87
2023-05-07T11:12:47.624Z,3262.50
2023-05-07T11:13:47.600Z,3172.50
2023-05-07T11:14:47.576Z,3240.00
2023-05-07T11:15:47.612Z,3195.00
2023-05-07T11:16:47.673Z,3262.50
2023-05-07T11:17:47.617Z,3341.25
2023-05-07T11:18:47.535Z,3234.37
2023-05-07T11:19:47.522Z,3144.37
2023-05-07T11:20:47.531Z,3138.75
2023-05-07T11:21:47.502Z,3234.37
2023-05-07T11:22:47.499Z,3155.62
2023-05-07T11:23:47.484Z,3127.50
2023-05-07T11:24:47.571Z,3043.12
2023-05-07T11:25:47.472Z,2992.50
2023-05-07T11:26:47.459Z,3054.37
2023-05-07T11:27:47.451Z,2947.50
2023-05-07T11:28:47.436Z,2998.12
2023-05-07T11:29:47.421Z,3150.00
2023-05-07T11:30:47.421Z,2193.75
2023-05-07T11:31:47.489Z,2413.12
2023-05-07T11:32:47.418Z,3099.37
2023-05-07T11:33:47.387Z,2998.12
2023-05-07T11:34:47.386Z,3268.12
2023-05-07T11:35:47.367Z,3549.37
2023-05-07T11:36:47.361Z,3425.62
2023-05-07T11:37:47.352Z,3448.12
2023-05-07T11:38:47.347Z,3015.00
2023-05-07T11:39:47.330Z,2964.37
2023-05-07T11:40:47.411Z,2896.87
2023-05-07T11:41:47.312Z,1822.50
2023-05-07T11:42:47.294Z,1929.36
2023-05-07T11:43:47.290Z,1980.00
2023-05-07T11:44:47.550Z,1895.61
2023-05-07T11:45:47.288Z,1873.11
2023-05-07T11:46:47.267Z,2036.25
2023-05-07T11:47:47.292Z,2835.00
2023-05-07T11:48:47.240Z,2536.87
2023-05-07T11:49:47.239Z,3110.62
2023-05-07T11:50:47.220Z,3037.50
2023-05-07T11:51:47.210Z,2998.12
2023-05-07T11:52:47.200Z,2818.12
2023-05-07T11:53:47.190Z,2790.00
2023-05-07T11:54:47.181Z,2520.00
2023-05-07T11:55:47.168Z,2643.75
2023-05-07T11:56:47.227Z,2688.75
2023-05-07T11:57:47.150Z,2638.12
2023-05-07T11:58:47.148Z,2469.37
2023-05-07T11:59:47.129Z,2711.25
2023-05-07T12:00:47.120Z,2688.75
2023-05-07T12:01:47.129Z,2430.00
2023-05-07T12:02:47.279Z,2458.12
2023-05-07T12:03:47.599Z,2334.37
2023-05-07T12:04:47.160Z,2435.62
2023-05-07T12:05:47.078Z,2295.00
2023-05-07T12:06:47.062Z,2565.00
2023-05-07T12:07:47.050Z,2655.00
2023-05-07T12:08:48.324Z,2733.75
2023-05-07T12:09:47.033Z,2761.87
2023-05-07T12:10:47.020Z,2790.00
2023-05-07T12:11:47.013Z,2773.12
2023-05-07T12:12:47.066Z,2750.62
2023-05-07T12:13:46.993Z,2722.50
2023-05-07T12:14:47.004Z,2424.37
2023-05-07T12:15:46.972Z,1620.00
2023-05-07T12:16:47.022Z,1732.50
2023-05-07T12:17:47.038Z,1620.00
2023-05-07T12:18:46.950Z,1726.86
2023-05-07T12:19:46.928Z,1653.75
2023-05-07T12:20:46.923Z,1771.86
2023-05-07T12:21:46.915Z,2182.50
2023-05-07T12:22:46.910Z,2165.62
2023-05-07T12:23:46.892Z,2070.00
2023-05-07T12:24:46.945Z,2103.75
2023-05-07T12:25:46.872Z,2126.25
2023-05-07T12:26:46.868Z,2115.00
2023-05-07T12:27:46.857Z,2075.62
2023-05-07T12:28:47.072Z,2081.25
2023-05-07T12:29:46.833Z,1991.25
2023-05-07T12:30:46.825Z,1929.36
2023-05-07T12:31:47.044Z,1636.86
2023-05-07T12:32:46.858Z,1428.75
2023-05-07T12:33:46.798Z,1198.11
2023-05-07T12:34:46.791Z,1293.75
2023-05-07T12:35:46.783Z,1096.86
2023-05-07T12:36:46.772Z,1085.61
2023-05-07T12:37:46.757Z,1080.00
2023-05-07T12:38:46.748Z,1051.86
2023-05-07T12:39:46.739Z,1012.50
2023-05-07T12:40:46.728Z,995.61
2023-05-07T12:41:46.720Z,990.00
2023-05-07T12:42:46.911Z,1001.25
2023-05-07T12:43:46.706Z,1023.75
2023-05-07T12:44:46.710Z,1051.86
2023-05-07T12:45:46.674Z,1051.86
2023-05-07T12:46:46.703Z,1068.75
2023-05-07T12:47:46.831Z,1074.36
2023-05-07T12:48:46.661Z,1074.36
2023-05-07T12:49:46.638Z,1057.50
2023-05-07T12:50:46.626Z,1046.25
2023-05-07T12:51:46.619Z,1001.25
2023-05-07T12:52:46.612Z,961.86
2023-05-07T12:53:46.596Z,933.75
2023-05-07T12:54:46.585Z,922.50
2023-05-07T12:55:46.582Z,922.50
2023-05-07T12:56:46.565Z,916.86
2023-05-07T12:57:46.557Z,916.86
2023-05-07T12:58:46.541Z,916.86
2023-05-07T12:59:46.536Z,905.61
2023-05-07T13:00:46.545Z,900.00
2023-05-07T13:01:46.564Z,894.36
2023-05-07T13:02:46.681Z,883.11
2023-05-07T13:03:46.554Z,883.11
2023-05-07T13:04:46.490Z,888.75
2023-05-07T13:05:46.475Z,888.75
2023-05-07T13:06:46.460Z,877.50
2023-05-07T13:07:46.447Z,866.25
2023-05-07T13:08:46.433Z,849.36
2023-05-07T13:09:46.428Z,838.11
2023-05-07T13:10:46.420Z,810.00
2023-05-07T13:11:46.408Z,781.86
2023-05-07T13:12:46.402Z,742.50
2023-05-07T13:13:46.390Z,708.75
2023-05-07T13:14:46.375Z,680.61
2023-05-07T13:15:46.533Z,669.36
2023-05-07T13:16:46.462Z,675.00
2023-05-07T13:17:46.423Z,691.86
2023-05-07T13:18:46.651Z,703.11
2023-05-07T13:19:46.323Z,714.36
2023-05-07T13:20:46.308Z,720.00
2023-05-07T13:21:46.302Z,708.75
2023-05-07T13:22:46.301Z,708.75
2023-05-07T13:23:46.283Z,703.11
2023-05-07T13:24:46.268Z,703.11
2023-05-07T13:25:46.262Z,686.25
2023-05-07T13:26:46.403Z,658.11
2023-05-07T13:27:48.093Z,630.00
2023-05-07T13:28:46.228Z,607.50
2023-05-07T13:29:46.222Z,579.36
2023-05-07T13:30:46.208Z,556.86
2023-05-07T13:31:47.799Z,545.61
2023-05-07T13:32:46.229Z,540.00
2023-05-07T13:33:46.171Z,523.11
2023-05-07T13:34:46.164Z,506.25
2023-05-07T13:35:46.170Z,489.36
2023-05-07T13:36:47.798Z,472.50
2023-05-07T13:37:46.143Z,461.25
2023-05-07T13:38:46.120Z,444.36
2023-05-07T13:39:46.111Z,433.11
2023-05-07T13:40:46.097Z,416.25
2023-05-07T13:41:46.089Z,399.36
2023-05-07T13:42:46.080Z,382.50
2023-05-07T13:43:46.069Z,365.61
2023-05-07T13:44:46.054Z,354.36
2023-05-07T13:45:46.071Z,337.50
2023-05-07T13:46:46.042Z,326.25
2023-05-07T13:47:46.041Z,315.00
2023-05-07T13:48:46.233Z,309.36
2023-05-07T13:49:46.003Z,292.50
2023-05-07T13:50:45.991Z,286.86
2023-05-07T13:51:46.027Z,286.86
2023-05-07T13:52:47.207Z,275.61
2023-05-07T13:53:45.961Z,270.00
2023-05-07T13:54:45.966Z,264.36
2023-05-07T13:55:45.947Z,258.75
2023-05-07T13:56:45.931Z,253.11
2023-05-07T13:57:45.920Z,247.50
2023-05-07T13:58:58.787Z,241.86
2023-05-07T13:59:46.925Z,230.61
2023-05-07T14:00:45.901Z,225.00
2023-05-07T14:01:45.894Z,213.75
2023-05-07T14:02:45.965Z,208.11
2023-05-07T14:03:46.094Z,202.50
2023-05-07T14:04:45.865Z,196.86
2023-05-07T14:05:47.187Z,191.25
2023-05-07T14:06:45.822Z,185.61
2023-05-07T14:07:45.821Z,180.00
2023-05-07T14:08:45.805Z,180.00
2023-05-07T14:09:45.793Z,174.36
2023-05-07T14:10:45.781Z,168.75
2023-05-07T14:11:45.774Z,163.11
2023-05-07T14:12:45.790Z,163.11
2023-05-07T14:13:45.806Z,157.50
2023-05-07T14:14:45.749Z,157.50
2023-05-07T14:15:45.727Z,157.50
2023-05-07T14:16:46.541Z,151.86
2023-05-07T14:17:45.775Z,151.86
2023-05-07T14:18:45.694Z,151.86
2023-05-07T14:19:45.691Z,151.86
2023-05-07T14:20:45.696Z,146.25
2023-05-07T14:21:45.674Z,146.25
2023-05-07T14:22:45.668Z,146.25
2023-05-07T14:23:45.654Z,140.61
2023-05-07T14:24:48.530Z,140.61
2023-05-07T14:25:46.650Z,140.61
2023-05-07T14:26:45.611Z,140.61
2023-05-07T14:27:45.604Z,140.61
2023-05-07T14:28:45.588Z,146.25
2023-05-07T14:29:45.590Z,146.25
2023-05-07T14:30:45.616Z,146.25
2023-05-07T14:31:45.556Z,151.86
2023-05-07T14:32:45.580Z,157.50
2023-05-07T14:33:45.543Z,157.50
2023-05-07T14:34:45.525Z,163.11
2023-05-07T14:35:45.515Z,168.75
2023-05-07T14:36:45.542Z,168.75
2023-05-07T14:37:45.494Z,174.36
2023-05-07T14:38:45.480Z,174.36
2023-05-07T14:40:45.460Z,180.00
2023-05-07T14:41:45.453Z,180.00
2023-05-07T14:42:45.438Z,180.00
2023-05-07T14:43:45.432Z,185.61
2023-05-07T14:44:45.419Z,191.25
2023-05-07T14:45:45.451Z,196.86
2023-05-07T14:46:45.446Z,196.86
2023-05-07T14:47:45.432Z,202.50
2023-05-07T14:48:45.383Z,208.11
2023-05-07T14:49:45.369Z,213.75
2023-05-07T14:50:45.356Z,219.36
2023-05-07T14:51:45.347Z,225.00
2023-05-07T14:52:45.357Z,230.61
2023-05-07T14:53:45.328Z,236.25
2023-05-07T14:54:45.325Z,236.25
2023-05-07T14:55:45.309Z,241.86
2023-05-07T14:56:45.295Z,241.86
2023-05-07T14:57:45.285Z,247.50
2023-05-07T14:58:45.277Z,247.50
2023-05-07T14:59:45.275Z,247.50
2023-05-07T15:00:45.456Z,247.50
2023-05-07T15:01:45.335Z,253.11
2023-05-07T15:02:45.267Z,264.36
2023-05-07T15:03:45.366Z,264.36
2023-05-07T15:04:45.215Z,264.36
2023-05-07T15:05:45.201Z,275.61
2023-05-07T15:06:45.193Z,281.25
2023-05-07T15:07:45.811Z,292.50
2023-05-07T15:08:45.198Z,309.36
2023-05-07T15:09:45.169Z,320.61
2023-05-07T15:10:45.148Z,326.25
2023-05-07T15:11:45.137Z,337.50
2023-05-07T15:12:45.172Z,354.36
2023-05-07T15:13:45.119Z,365.61
2023-05-07T15:14:45.105Z,371.25
2023-05-07T15:15:45.093Z,388.11
2023-05-07T15:16:45.121Z,388.11
2023-05-07T15:17:45.119Z,388.11
2023-05-07T15:18:45.072Z,393.75
2023-05-07T15:19:45.051Z,405.00
2023-05-07T15:20:45.045Z,410.61
2023-05-07T15:21:45.027Z,416.25
2023-05-07T15:22:45.015Z,427.50
2023-05-07T15:23:45.008Z,433.11
2023-05-07T15:24:45.038Z,438.75
2023-05-07T15:25:44.986Z,444.36
2023-05-07T15:26:44.978Z,450.00
2023-05-07T15:27:44.966Z,455.61
2023-05-07T15:28:44.950Z,455.61
2023-05-07T15:29:44.943Z,461.25
2023-05-07T15:30:44.935Z,466.86
2023-05-07T15:31:44.964Z,472.50
2023-05-07T15:32:44.982Z,478.11
2023-05-07T15:33:45.104Z,483.75
2023-05-07T15:34:44.888Z,489.36
2023-05-07T15:35:44.891Z,500.61
2023-05-07T15:36:44.867Z,511.86
2023-05-07T15:37:44.862Z,517.50
2023-05-07T15:38:44.846Z,523.11
2023-05-07T15:39:44.838Z,528.75
2023-05-07T15:40:44.845Z,534.36
2023-05-07T15:41:44.815Z,540.00
2023-05-07T15:42:44.824Z,545.61
2023-05-07T15:43:45.012Z,551.25
2023-05-07T15:44:44.786Z,551.25
2023-05-07T15:45:44.810Z,556.86
2023-05-07T15:46:44.770Z,556.86
2023-05-07T15:47:44.795Z,556.86
2023-05-07T15:48:44.780Z,551.25
2023-05-07T15:49:44.741Z,551.25
2023-05-07T15:50:44.717Z,551.25
2023-05-07T15:51:44.715Z,551.25
2023-05-07T15:52:44.701Z,540.00
2023-05-07T15:53:44.690Z,534.36
2023-05-07T15:54:44.679Z,528.75
2023-05-07T15:55:44.670Z,528.75
2023-05-07T15:56:44.686Z,523.11
2023-05-07T15:57:44.646Z,523.11
2023-05-07T15:58:44.643Z,523.11
2023-05-07T15:59:44.624Z,528.75
2023-05-07T16:00:44.643Z,528.75
2023-05-07T16:01:44.722Z,528.75
2023-05-07T16:02:44.697Z,534.36
2023-05-07T16:03:44.700Z,540.00
2023-05-07T16:04:44.581Z,545.61
2023-05-07T16:05:44.567Z,545.61
2023-05-07T16:06:44.557Z,545.61
2023-05-07T16:07:44.557Z,540.00
2023-05-07T16:08:44.552Z,534.36
2023-05-07T16:09:44.526Z,534.36